Time;durP1;ratioP1;P1;durP2;ratioP2;P2;SDS_P1;SDS_P2;PMS_P1;PMS_P2;Temp;Humidity;BMP_temperature;BMP_pressure;BME280_temperature;BME280_humidity;BME280_pressure;Samples;Min_cycle;Max_cycle;Signal;HPM_P1;HPM_P2
2022/09/23 02:21:34;;;;;;;7.47;2.03;;;16.00;82.30;;;;;;5057189;28;20469;-75
2022/09/23 02:24:12;;;;;;;5.43;2.22;;;16.20;83.50;;;;;;5035568;28;20013;-73
2022/09/23 02:26:51;;;;;;;9.57;2.33;;;16.20;83.10;;;;;;5041673;28;20577;-69
2022/09/23 02:29:32;;;;;;;14.45;2.50;;;16.20;83.00;;;;;;5042633;28;20388;-69
2022/09/23 02:32:12;;;;;;;8.07;2.00;;;16.20;82.70;;;;;;5046386;28;20025;-68
2022/09/23 02:34:48;;;;;;;5.93;1.98;;;16.30;82.60;;;;;;5042087;28;20044;-70
2022/09/23 02:37:38;;;;;;;4.50;1.80;;;16.30;82.50;;;;;;5042932;28;20060;-70
2022/09/23 02:40:21;;;;;;;9.10;1.80;;;16.30;82.40;;;;;;5040366;28;20032;-70
2022/09/23 02:43:04;;;;;;;12.18;2.22;;;16.30;82.30;;;;;;5042443;28;20033;-70
2022/09/23 02:45:32;;;;;;;3.83;1.52;;;16.30;82.20;;;;;;5042245;28;20033;-70
2022/09/23 02:48:23;;;;;;;13.70;3.63;;;16.40;82.20;;;;;;5042211;28;20021;-69
2022/09/23 02:50:50;;;;;;;12.43;2.30;;;16.40;81.90;;;;;;5034854;28;20045;-75
2022/09/23 02:53:16;;;;;;;7.20;2.10;;;16.40;81.60;;;;;;5039959;28;20013;-75
2022/09/23 02:55:43;;;;;;;5.35;1.60;;;16.30;81.00;;;;;;5045183;28;20022;-72
2022/09/23 02:58:13;;;;;;;6.63;1.85;;;16.30;80.70;;;;;;5040561;28;20347;-75
2022/09/23 03:01:06;;;;;;;9.00;1.80;;;16.30;80.30;;;;;;5040965;28;20091;-75
2022/09/23 03:03:52;;;;;;;6.13;1.90;;;16.30;79.80;;;;;;5039173;28;20025;-75
2022/09/23 03:06:32;;;;;;;12.18;3.55;;;16.30;79.30;;;;;;5043763;28;20518;-69
2022/09/23 03:09:24;;;;;;;7.95;1.88;;;16.30;78.80;;;;;;5043442;28;20037;-75
2022/09/23 03:12:08;;;;;;;5.78;2.40;;;16.20;78.70;;;;;;5041092;28;20025;-77
2022/09/23 03:14:48;;;;;;;7.93;2.47;;;16.20;78.60;;;;;;5038945;28;20566;-75
2022/09/23 03:17:26;;;;;;;11.38;2.38;;;16.20;78.60;;;;;;5038933;28;20503;-76
2022/09/23 03:20:11;;;;;;;8.32;2.33;;;16.20;78.70;;;;;;5041974;28;20045;-75
2022/09/23 03:22:47;;;;;;;7.72;1.88;;;16.10;78.50;;;;;;5025334;28;20033;-76
2022/09/23 03:25:21;;;;;;;14.07;3.30;;;16.10;78.60;;;;;;5032937;28;20049;-74
2022/09/23 03:27:47;;;;;;;9.95;2.42;;;16.10;78.70;;;;;;5030647;28;20615;-74
2022/09/23 03:30:15;;;;;;;8.68;2.28;;;16.10;78.60;;;;;;5028111;28;20030;-74
2022/09/23 03:32:45;;;;;;;14.27;3.13;;;16.00;78.60;;;;;;5027554;28;20030;-73
2022/09/23 03:35:13;;;;;;;4.65;1.58;;;16.00;78.70;;;;;;5025643;28;20029;-72
2022/09/23 03:37:46;;;;;;;4.70;1.95;;;16.00;78.60;;;;;;5027987;28;20078;-73
2022/09/23 03:40:21;;;;;;;21.13;8.80;;;16.00;78.60;;;;;;5026181;28;20025;-74
2022/09/23 03:42:50;;;;;;;24.27;12.00;;;16.00;78.50;;;;;;5031610;28;20035;-75
2022/09/23 03:45:21;;;;;;;24.75;12.63;;;16.00;78.40;;;;;;5026102;28;20109;-71
2022/09/23 03:47:47;;;;;;;24.42;10.05;;;16.00;78.50;;;;;;5031507;28;20061;-72
2022/09/23 03:50:17;;;;;;;17.17;6.20;;;16.00;78.20;;;;;;5028613;28;20061;-71
2022/09/23 03:52:45;;;;;;;12.63;4.57;;;15.90;78.20;;;;;;5025284;28;20021;-70
2022/09/23 03:55:11;;;;;;;8.55;2.60;;;15.90;77.80;;;;;;5031048;28;20029;-69
2022/09/23 03:57:38;;;;;;;14.82;2.42;;;15.90;77.60;;;;;;5022278;28;20076;-74
2022/09/23 04:00:06;;;;;;;7.25;3.60;;;15.90;77.40;;;;;;5029121;28;20037;-70
2022/09/23 04:02:33;;;;;;;7.55;1.50;;;15.90;77.30;;;;;;5024278;28;20018;-70
2022/09/23 04:05:00;;;;;;;3.60;1.80;;;15.90;77.30;;;;;;5031744;28;20013;-71
2022/09/23 04:07:26;;;;;;;7.18;1.88;;;15.90;77.10;;;;;;5024431;28;20106;-70
2022/09/23 04:09:53;;;;;;;10.10;2.00;;;15.90;77.10;;;;;;5028340;28;20128;-70
2022/09/23 04:12:19;;;;;;;6.78;2.28;;;15.80;76.90;;;;;;5028812;28;20030;-68
2022/09/23 04:14:46;;;;;;;12.65;3.88;;;15.80;77.00;;;;;;5028726;28;20036;-70
2022/09/23 04:17:13;;;;;;;17.70;7.70;;;15.80;77.30;;;;;;5030803;28;20036;-72
2022/09/23 04:19:39;;;;;;;48.20;32.63;;;15.80;77.20;;;;;;5023569;28;20069;-70
2022/09/23 04:22:08;;;;;;;46.00;31.70;;;15.80;77.20;;;;;;5029228;28;20034;-70
2022/09/23 04:24:35;;;;;;;27.15;15.90;;;15.80;77.30;;;;;;5025399;28;20033;-74
2022/09/23 04:27:02;;;;;;;17.90;8.02;;;15.80;77.40;;;;;;5027764;28;20037;-69
2022/09/23 04:29:29;;;;;;;12.32;3.58;;;15.80;77.30;;;;;;5020212;28;20033;-69
2022/09/23 04:31:56;;;;;;;10.20;2.83;;;15.80;77.20;;;;;;5022261;28;20125;-70
2022/09/23 04:34:23;;;;;;;9.00;2.20;;;15.80;77.10;;;;;;5025202;28;20029;-70
2022/09/23 04:36:49;;;;;;;12.75;2.78;;;15.80;77.10;;;;;;5029712;28;20108;-69
2022/09/23 04:39:17;;;;;;;6.03;3.63;;;15.70;77.00;;;;;;5026534;28;20524;-68
2022/09/23 04:41:44;;;;;;;24.90;4.32;;;15.70;77.00;;;;;;5027172;28;20022;-74
2022/09/23 04:44:12;;;;;;;7.03;2.60;;;15.80;77.00;;;;;;5027602;28;20021;-69
2022/09/23 04:46:40;;;;;;;8.27;3.55;;;15.70;76.70;;;;;;5025553;28;20024;-71
2022/09/23 04:49:07;;;;;;;8.68;3.15;;;15.70;76.50;;;;;;5027776;28;20061;-71
2022/09/23 04:51:34;;;;;;;11.70;2.92;;;15.70;76.40;;;;;;5027131;28;20053;-76
2022/09/23 04:54:00;;;;;;;9.65;3.22;;;15.70;76.30;;;;;;5030263;28;20373;-70
2022/09/23 04:56:31;;;;;;;6.20;1.90;;;15.70;76.30;;;;;;5027325;28;20022;-69
2022/09/23 04:59:17;;;;;;;8.93;2.30;;;15.70;76.30;;;;;;5008808;28;20060;-70
2022/09/23 05:01:44;;;;;;;9.50;2.58;;;15.70;76.40;;;;;;5025039;28;20017;-77
2022/09/23 05:04:12;;;;;;;6.43;2.72;;;15.70;76.40;;;;;;5028399;28;20036;-70
2022/09/23 05:06:39;;;;;;;10.02;4.00;;;15.70;76.40;;;;;;5023887;28;20052;-72
2022/09/23 05:09:07;;;;;;;6.32;2.28;;;15.60;76.30;;;;;;5031857;28;20021;-71
2022/09/23 05:11:34;;;;;;;6.65;2.33;;;15.60;76.10;;;;;;5027879;28;20029;-71
2022/09/23 05:14:01;;;;;;;16.48;3.08;;;15.60;75.90;;;;;;5028208;28;20037;-73
2022/09/23 05:16:28;;;;;;;9.57;3.15;;;15.60;75.70;;;;;;5023288;28;20049;-71
2022/09/23 05:18:55;;;;;;;5.72;1.85;;;15.60;75.60;;;;;;5030133;28;20021;-70
2022/09/23 05:21:23;;;;;;;5.10;2.50;;;15.60;75.50;;;;;;5025706;28;20528;-70
2022/09/23 05:23:57;;;;;;;9.68;2.33;;;15.50;75.30;;;;;;5028878;28;20105;-70
2022/09/23 05:26:26;;;;;;;12.40;3.05;;;15.60;75.50;;;;;;5026669;28;20021;-70
2022/09/23 05:28:53;;;;;;;7.18;3.75;;;15.60;75.60;;;;;;5026642;28;20125;-69
2022/09/23 05:31:22;;;;;;;10.85;2.80;;;15.60;75.60;;;;;;5029004;28;20026;-71
2022/09/23 05:33:57;;;;;;;6.63;2.45;;;15.60;75.80;;;;;;5024885;28;20076;-69
2022/09/23 05:36:24;;;;;;;4.10;2.17;;;15.50;75.90;;;;;;5028534;28;20053;-70
2022/09/23 05:38:51;;;;;;;6.78;2.10;;;15.60;76.00;;;;;;5025127;28;20026;-71
2022/09/23 05:41:21;;;;;;;10.40;2.70;;;15.60;76.00;;;;;;5025640;28;20369;-70
2022/09/23 05:43:50;;;;;;;8.95;2.33;;;15.60;75.90;;;;;;5028667;28;20034;-69
2022/09/23 05:46:19;;;;;;;8.93;2.40;;;15.60;75.90;;;;;;5027422;28;20006;-71
2022/09/23 05:48:46;;;;;;;7.05;2.35;;;15.60;75.80;;;;;;5028390;28;20088;-69
2022/09/23 05:51:18;;;;;;;7.43;1.80;;;15.60;75.70;;;;;;5026460;28;20075;-71
2022/09/23 05:53:46;;;;;;;13.68;2.67;;;15.60;75.70;;;;;;5028932;28;20031;-71
2022/09/23 05:56:18;;;;;;;5.28;1.98;;;15.60;75.90;;;;;;5026154;28;20022;-72
2022/09/23 05:58:44;;;;;;;9.00;2.33;;;15.60;76.30;;;;;;5021436;28;20021;-72
2022/09/23 06:01:23;;;;;;;12.65;1.98;;;15.70;76.50;;;;;;5024739;28;20084;-70
2022/09/23 08:35:07;;;;;;;4.83;0.97;;;17.30;61.40;;;;;;5607804;22;15361984;-69
2022/09/23 08:37:34;;;;;;;4.90;1.05;;;17.40;61.00;;;;;;6220018;23;20036;-73
2022/09/23 08:40:00;;;;;;;6.40;1.23;;;17.50;60.50;;;;;;6218803;23;19997;-69
2022/09/23 08:42:32;;;;;;;5.50;2.30;;;17.50;60.00;;;;;;6220508;23;20003;-71
2022/09/23 08:45:03;;;;;;;3.25;1.05;;;17.60;59.80;;;;;;6218970;23;20074;-69
2022/09/23 08:47:45;;;;;;;4.28;1.58;;;17.60;59.50;;;;;;6220340;23;20808;-68
2022/09/23 08:50:19;;;;;;;6.70;1.65;;;17.70;59.30;;;;;;6219020;23;20000;-70
2022/09/23 08:52:53;;;;;;;5.22;1.42;;;17.70;59.00;;;;;;6220200;23;20027;-73
2022/09/23 08:55:29;;;;;;;2.70;1.80;;;17.70;58.70;;;;;;6220778;23;20012;-68
2022/09/23 08:58:13;;;;;;;3.05;1.00;;;17.70;58.60;;;;;;6219510;23;20428;-72
2022/09/23 09:00:42;;;;;;;3.30;1.13;;;17.70;58.50;;;;;;6220891;23;20009;-72
2022/09/23 09:03:23;;;;;;;5.07;2.60;;;17.60;58.30;;;;;;6220038;23;20293;-68
2022/09/23 09:05:53;;;;;;;3.63;1.52;;;17.70;58.40;;;;;;6219848;23;20037;-70
2022/09/23 09:08:28;;;;;;;2.75;1.02;;;17.60;58.60;;;;;;6220485;23;20487;-69
2022/09/23 09:10:57;;;;;;;6.78;1.95;;;17.60;58.70;;;;;;6219519;23;20324;-68
2022/09/23 09:13:31;;;;;;;3.83;1.30;;;17.60;58.50;;;;;;6220716;23;20011;-69
2022/09/23 09:16:41;;;;;;;5.30;1.20;;;17.60;58.60;;;;;;6219494;23;20084;-68
2022/09/23 09:19:18;;;;;;;3.92;1.85;;;17.60;58.40;;;;;;6219033;23;20319;-69
2022/09/23 09:21:49;;;;;;;4.72;2.05;;;17.70;58.40;;;;;;6220351;23;20507;-68
2022/09/23 09:24:32;;;;;;;3.88;2.08;;;17.70;58.40;;;;;;6219107;23;20000;-72
2022/09/23 09:27:08;;;;;;;5.18;1.77;;;17.70;58.40;;;;;;6216014;23;20000;-71
2022/09/23 09:29:39;;;;;;;9.90;1.90;;;17.70;58.60;;;;;;6213633;23;20005;-72
2022/09/23 09:32:22;;;;;;;6.05;1.40;;;17.80;58.90;;;;;;6212594;23;20000;-70
2022/09/23 09:34:58;;;;;;;4.63;1.95;;;17.80;60.00;;;;;;6213492;23;20001;-69
2022/09/23 09:37:45;;;;;;;8.02;1.73;;;17.90;59.30;;;;;;6212048;23;20001;-72
2022/09/23 09:40:13;;;;;;;7.60;1.67;;;17.90;59.40;;;;;;6213202;23;20001;-68
2022/09/23 09:42:44;;;;;;;10.93;2.08;;;18.00;60.00;;;;;;6213526;23;20080;-71
2022/09/23 09:45:18;;;;;;;10.50;1.80;;;18.10;59.60;;;;;;6212054;23;20009;-68
2022/09/23 09:47:58;;;;;;;7.03;2.10;;;18.20;59.40;;;;;;6213257;23;20467;-69
2022/09/23 09:50:48;;;;;;;6.32;2.13;;;18.20;59.30;;;;;;6212096;23;20001;-73
2022/09/23 09:53:26;;;;;;;7.95;1.85;;;18.30;59.10;;;;;;6212784;23;20447;-69
2022/09/23 09:56:00;;;;;;;6.88;1.60;;;18.40;58.80;;;;;;6213586;23;20001;-69
2022/09/23 09:59:13;;;;;;;12.53;2.40;;;18.50;58.10;;;;;;6212231;23;20150;-70
2022/09/23 10:01:40;;;;;;;4.60;1.38;;;18.50;57.60;;;;;;6197276;23;20262;-68
2022/09/23 10:04:22;;;;;;;9.13;1.98;;;18.70;57.70;;;;;;6212789;23;20001;-69
2022/09/23 10:07:22;;;;;;;7.05;2.65;;;18.80;57.60;;;;;;6211949;23;20016;-73
2022/09/23 10:09:51;;;;;;;8.07;2.67;;;18.80;56.80;;;;;;6191904;23;20059;-70
2022/09/23 10:12:23;;;;;;;6.00;1.52;;;18.90;56.20;;;;;;6212335;23;20063;-73
2022/09/23 10:14:55;;;;;;;3.13;1.85;;;19.00;56.30;;;;;;6212967;23;20084;-73
2022/09/23 10:17:26;;;;;;;6.65;1.67;;;19.00;56.00;;;;;;6213006;23;20004;-74
2022/09/23 10:20:07;;;;;;;6.18;2.75;;;19.10;55.40;;;;;;6211761;23;19996;-71
2022/09/23 10:22:38;;;;;;;5.72;1.63;;;19.20;54.80;;;;;;6213046;23;20501;-69
2022/09/23 10:25:25;;;;;;;9.73;2.63;;;19.30;55.00;;;;;;6211983;23;20071;-72
2022/09/23 10:27:52;;;;;;;10.63;1.73;;;19.40;55.20;;;;;;6212538;23;20424;-73
2022/09/23 10:30:24;;;;;;;3.00;1.77;;;19.40;55.20;;;;;;6212649;23;20079;-72
2022/09/23 10:32:53;;;;;;;5.20;1.92;;;19.50;54.30;;;;;;6211704;23;20328;-70
2022/09/23 10:35:23;;;;;;;3.88;1.50;;;19.50;54.30;;;;;;6212740;23;20428;-72
2022/09/23 10:37:58;;;;;;;5.97;1.95;;;19.60;54.00;;;;;;6211069;23;20079;-68
2022/09/23 10:47:13;;;;;;;4.20;1.70;;;19.80;53.50;;;;;;6090841;23;20082;-70
2022/09/23 10:49:54;;;;;;;3.92;1.30;;;19.80;53.90;;;;;;6090694;23;20026;-72
2022/09/23 10:52:35;;;;;;;12.65;1.70;;;19.90;53.40;;;;;;6195047;23;20009;-68
2022/09/23 10:55:13;;;;;;;5.32;1.48;;;19.90;53.00;;;;;;6211352;23;20000;-71
2022/09/23 10:58:03;;;;;;;10.73;2.15;;;20.00;52.00;;;;;;6212995;23;20010;-70
2022/09/23 11:00:57;;;;;;;2.05;1.17;;;19.90;51.00;;;;;;6212376;23;20000;-71
2022/09/23 11:04:07;;;;;;;5.30;1.10;;;20.00;51.30;;;;;;6211599;23;20424;-68
2022/09/23 11:06:42;;;;;;;6.30;1.42;;;20.00;51.00;;;;;;6212427;23;20009;-68
2022/09/23 11:09:29;;;;;;;;;;;20.00;50.80;;;;;;6212786;23;20004;-72
2022/09/23 11:12:24;;;;;;;7.15;1.50;;;20.00;51.20;;;;;;6211176;23;19911;-68
2022/09/23 11:15:30;;;;;;;3.85;1.15;;;20.00;50.80;;;;;;6212888;23;20063;-71
2022/09/23 11:18:22;;;;;;;11.88;2.03;;;20.00;50.90;;;;;;6152306;23;20012;-72
2022/09/23 11:21:06;;;;;;;6.38;1.95;;;20.00;51.20;;;;;;6211287;23;20046;-68
2022/09/23 11:24:14;;;;;;;4.43;1.50;;;20.00;51.80;;;;;;6212451;23;20036;-72
2022/09/23 11:26:51;;;;;;;5.28;1.10;;;20.10;51.60;;;;;;6212193;23;20019;-74
2022/09/23 11:29:27;;;;;;;4.55;1.20;;;20.10;51.30;;;;;;6211499;23;20000;-73
2022/09/23 11:32:20;;;;;;;8.40;1.38;;;20.10;51.10;;;;;;6212637;23;20482;-68
2022/09/23 11:35:05;;;;;;;4.07;2.15;;;20.10;51.60;;;;;;6211722;23;20000;-74
2022/09/23 11:37:45;;;;;;;8.30;1.05;;;20.10;51.40;;;;;;6211298;23;20015;-72
2022/09/23 11:40:29;;;;;;;6.18;1.33;;;20.10;51.40;;;;;;6212248;23;20505;-70
2022/09/23 11:43:14;;;;;;;2.55;1.40;;;20.20;51.30;;;;;;6210893;23;20056;-69
2022/09/23 11:46:10;;;;;;;5.40;2.05;;;20.20;51.30;;;;;;6210182;23;20387;-73
2022/09/23 11:49:03;;;;;;;6.82;1.45;;;20.30;51.40;;;;;;6212336;23;20000;-70
2022/09/23 11:51:49;;;;;;;4.93;1.10;;;20.30;51.30;;;;;;6210295;23;20332;-68
2022/09/23 11:54:33;;;;;;;13.32;1.20;;;20.30;51.00;;;;;;6211976;23;20004;-72
2022/09/23 11:57:05;;;;;;;6.13;1.23;;;20.40;50.80;;;;;;6212083;23;20294;-68
2022/09/23 11:59:46;;;;;;;4.45;0.93;;;20.40;50.60;;;;;;6211242;23;20084;-68
2022/09/23 12:02:34;;;;;;;3.92;1.00;;;20.40;50.10;;;;;;6212189;23;20009;-68
2022/09/23 12:05:15;;;;;;;5.72;1.27;;;20.40;50.10;;;;;;6211188;23;20012;-75
2022/09/23 12:07:56;;;;;;;3.65;2.30;;;20.40;50.00;;;;;;6205556;23;20005;-70
2022/09/23 12:10:44;;;;;;;6.18;1.52;;;20.50;50.00;;;;;;6212447;23;20029;-69
2022/09/23 12:13:22;;;;;;;3.03;1.15;;;20.50;50.00;;;;;;6210649;23;20012;-71
2022/09/23 12:16:27;;;;;;;3.97;2.47;;;20.60;49.90;;;;;;6212293;23;20007;-69
2022/09/23 12:19:38;;;;;;;4.28;1.45;;;20.60;49.60;;;;;;6212425;23;20001;-69
2022/09/23 12:22:23;;;;;;;5.95;1.13;;;20.60;49.80;;;;;;6210865;23;20088;-68
2022/09/23 12:25:32;;;;;;;3.45;1.02;;;20.60;49.70;;;;;;6211843;23;20041;-68
2022/09/23 12:28:05;;;;;;;5.03;0.88;;;20.60;49.90;;;;;;6211661;23;20004;-72
2022/09/23 12:30:34;;;;;;;3.05;1.48;;;20.60;49.90;;;;;;6211141;23;20105;-70
2022/09/23 12:33:32;;;;;;;10.25;1.83;;;20.60;49.80;;;;;;6211980;23;20000;-68
2022/09/23 12:36:11;;;;;;;2.20;1.10;;;20.60;50.00;;;;;;6187931;23;20035;-68
2022/09/23 12:39:01;;;;;;;5.53;1.73;;;20.50;50.00;;;;;;6210679;23;20026;-69
2022/09/23 12:41:35;;;;;;;5.78;1.23;;;20.50;49.30;;;;;;6212000;23;20351;-68
2022/09/23 12:44:14;;;;;;;5.75;0.90;;;20.50;49.40;;;;;;6211528;23;20028;-74
2022/09/23 12:46:45;;;;;;;4.57;0.68;;;20.50;50.00;;;;;;6211345;23;20158;-68
2022/09/23 12:49:34;;;;;;;3.00;1.10;;;20.50;49.80;;;;;;6211923;23;20432;-68
2022/09/23 12:52:10;;;;;;;4.38;1.00;;;20.50;49.40;;;;;;6210892;23;20004;-68
2022/09/23 12:54:38;;;;;;;2.30;1.88;;;20.60;49.60;;;;;;6211914;23;20078;-68
2022/09/23 12:57:10;;;;;;;3.17;0.88;;;20.60;49.40;;;;;;6211135;23;20001;-68
2022/09/23 13:00:13;;;;;;;4.45;0.88;;;20.70;49.40;;;;;;6211239;23;20011;-73
2022/09/23 13:02:46;;;;;;;3.80;1.20;;;20.80;49.60;;;;;;6213234;23;20005;-67
2022/09/23 13:08:21;;;;;;;6.32;1.77;;;20.90;48.80;;;;;;6213484;23;20011;-68
2022/09/23 13:11:17;;;;;;;2.75;0.80;;;20.90;49.20;;;;;;6213733;23;20004;-72
2022/09/23 13:13:45;;;;;;;4.60;1.58;;;21.00;49.80;;;;;;6212454;23;20008;-68
2022/09/23 13:16:13;;;;;;;3.63;1.58;;;21.00;49.90;;;;;;6212892;23;20019;-68
2022/09/23 13:18:59;;;;;;;5.32;1.15;;;21.00;49.70;;;;;;6213182;23;20075;-73
2022/09/23 13:21:45;;;;;;;1.83;1.10;;;21.10;50.00;;;;;;6212812;23;20000;-69
2022/09/23 13:24:27;;;;;;;3.95;1.10;;;21.10;49.80;;;;;;6213955;23;20000;-75
2022/09/23 13:27:04;;;;;;;11.68;1.48;;;21.10;49.40;;;;;;6212252;23;20321;-71
2022/09/23 13:29:40;;;;;;;2.40;1.20;;;21.10;49.20;;;;;;6213335;23;20007;-71
2022/09/23 13:32:13;;;;;;;4.43;0.95;;;21.10;49.30;;;;;;6213401;23;19997;-70
2022/09/23 13:34:43;;;;;;;3.58;0.80;;;21.10;49.50;;;;;;6212307;23;20058;-75
2022/09/23 13:37:29;;;;;;;3.95;0.85;;;21.10;49.60;;;;;;6213358;23;20016;-75
2022/09/23 13:40:16;;;;;;;2.35;1.00;;;21.10;49.70;;;;;;6212613;23;20007;-70
2022/09/23 13:42:47;;;;;;;2.20;0.93;;;21.00;49.70;;;;;;6213048;23;19996;-73
2022/09/23 13:45:37;;;;;;;2.00;0.85;;;21.10;49.70;;;;;;6213731;23;20035;-71
2022/09/23 13:48:09;;;;;;;4.28;1.23;;;21.10;49.50;;;;;;6211915;23;20011;-70
2022/09/23 13:50:39;;;;;;;2.22;1.00;;;21.10;49.40;;;;;;6213387;23;20003;-71
2022/09/23 13:53:10;;;;;;;3.30;0.90;;;21.00;49.50;;;;;;6212135;23;20024;-68
2022/09/23 13:55:38;;;;;;;6.82;1.33;;;21.10;49.50;;;;;;6213512;23;20008;-69
2022/09/23 13:58:16;;;;;;;20.42;1.20;;;21.00;49.10;;;;;;6213038;23;19997;-69
2022/09/23 14:00:43;;;;;;;4.43;1.25;;;21.10;49.10;;;;;;6212264;23;20395;-67
2022/09/23 17:05:06;;;;;;;2.92;1.10;;;18.90;53.70;;;;;;6188425;23;20088;-72
2022/09/23 17:07:32;;;;;;;20.13;5.45;;;18.90;53.80;;;;;;6186752;23;20444;-67
2022/09/23 17:09:59;;;;;;;3.83;2.40;;;18.90;54.00;;;;;;6189010;23;20592;-67
2022/09/23 17:12:31;;;;;;;19.85;5.18;;;18.90;54.40;;;;;;6187070;23;20035;-70
2022/09/23 17:14:58;;;;;;;11.48;3.05;;;18.80;55.00;;;;;;6189528;23;20005;-66
2022/09/23 17:17:24;;;;;;;17.05;3.90;;;18.80;54.80;;;;;;6187548;23;20028;-66
2022/09/23 17:19:51;;;;;;;12.05;4.38;;;18.80;55.00;;;;;;6188473;23;20075;-65
2022/09/23 17:22:17;;;;;;;14.80;8.38;;;18.80;55.10;;;;;;6187076;23;20001;-66
2022/09/23 17:24:44;;;;;;;16.83;8.73;;;18.80;55.20;;;;;;6181082;23;20413;-68
2022/09/23 17:27:10;;;;;;;11.13;7.60;;;18.70;55.30;;;;;;6182085;23;20032;-68
2022/09/23 17:29:38;;;;;;;9.70;5.20;;;18.70;55.40;;;;;;6181108;23;20001;-69
2022/09/23 17:32:05;;;;;;;9.15;3.08;;;18.70;55.90;;;;;;6182497;23;20041;-68
2022/09/23 17:34:32;;;;;;;3.72;2.65;;;18.70;56.40;;;;;;6180062;23;19997;-66
2022/09/23 17:36:59;;;;;;;6.20;2.35;;;18.70;56.80;;;;;;6181415;23;20001;-71
2022/09/23 17:39:26;;;;;;;5.45;2.70;;;18.70;56.90;;;;;;6181600;23;20320;-69
2022/09/23 17:41:54;;;;;;;7.28;1.90;;;18.70;57.30;;;;;;6181042;23;19997;-70
2022/09/23 17:44:21;;;;;;;3.03;2.03;;;18.70;57.30;;;;;;6181402;23;20001;-69
2022/09/23 17:46:48;;;;;;;5.28;2.30;;;18.70;57.20;;;;;;6180211;23;20035;-72
2022/09/23 17:49:14;;;;;;;5.70;2.33;;;18.60;57.10;;;;;;6181564;23;20061;-66
2022/09/23 17:51:41;;;;;;;5.50;2.28;;;18.60;57.60;;;;;;6180410;23;20349;-69
2022/09/23 17:54:08;;;;;;;7.22;4.03;;;18.60;57.50;;;;;;6181404;23;20008;-68
2022/09/23 17:56:34;;;;;;;13.00;7.22;;;18.60;57.60;;;;;;6180707;23;20009;-72
2022/09/23 17:59:01;;;;;;;16.27;9.07;;;18.60;57.70;;;;;;6180984;23;19993;-70
2022/09/23 18:01:29;;;;;;;11.80;6.13;;;18.60;57.60;;;;;;6181920;23;20020;-70
2022/09/23 18:04:02;;;;;;;12.65;4.70;;;18.60;58.40;;;;;;6179671;23;20447;-69
2022/09/23 18:06:31;;;;;;;6.55;3.63;;;18.60;58.40;;;;;;6181768;23;20005;-70
2022/09/23 18:09:02;;;;;;;7.40;3.10;;;18.50;58.30;;;;;;6180232;23;20004;-70
2022/09/23 18:11:32;;;;;;;20.27;4.13;;;18.60;58.20;;;;;;6181925;23;20060;-71
2022/09/23 18:14:01;;;;;;;29.13;3.58;;;18.60;58.30;;;;;;6181017;23;20044;-71
2022/09/23 18:16:32;;;;;;;10.05;2.05;;;18.60;58.60;;;;;;6180500;23;20108;-69
2022/09/23 18:19:01;;;;;;;10.95;2.88;;;18.50;58.60;;;;;;6181861;23;20084;-69
2022/09/23 18:21:31;;;;;;;7.10;1.80;;;18.50;58.60;;;;;;6180110;23;20004;-69
2022/09/23 18:23:59;;;;;;;3.15;1.60;;;18.50;58.60;;;;;;6181175;23;20012;-68
2022/09/23 18:26:26;;;;;;;4.20;2.42;;;18.50;58.60;;;;;;6179821;23;20009;-69
2022/09/23 18:28:59;;;;;;;4.70;1.58;;;18.50;58.60;;;;;;6181814;23;20071;-70
2022/09/23 18:31:26;;;;;;;7.90;1.90;;;18.50;59.10;;;;;;6181144;23;20009;-69
2022/09/23 18:33:54;;;;;;;3.35;1.40;;;18.50;59.20;;;;;;6180585;23;20374;-70
2022/09/23 18:36:23;;;;;;;4.45;1.40;;;18.50;59.10;;;;;;6181214;23;20005;-69
2022/09/23 18:38:50;;;;;;;8.77;1.83;;;18.40;59.10;;;;;;6179966;23;20005;-70
2022/09/23 18:41:19;;;;;;;5.28;1.38;;;18.40;59.30;;;;;;6180062;23;20055;-70
2022/09/23 18:43:46;;;;;;;4.28;1.98;;;18.40;59.50;;;;;;6154831;23;20005;-70
2022/09/23 18:46:20;;;;;;;7.30;1.98;;;18.40;59.50;;;;;;6181006;23;20001;-69
2022/09/23 18:51:33;;;;;;;;;;;18.40;59.60;;;;;;6180967;23;20023;-70
2022/09/23 18:54:02;;;;;;;3.50;2.00;;;18.30;59.60;;;;;;6181323;23;20320;-72
2022/09/23 18:56:36;;;;;;;24.52;13.07;;;18.40;59.60;;;;;;6179788;23;20735;-68
2022/09/23 18:59:06;;;;;;;16.27;12.55;;;18.40;59.70;;;;;;6181442;23;20361;-69
2022/09/23 19:01:34;;;;;;;19.10;10.05;;;18.40;59.80;;;;;;6179804;23;20040;-70
2022/09/23 19:04:02;;;;;;;11.35;7.75;;;18.30;59.70;;;;;;6154232;23;20380;-68
2022/09/23 19:06:33;;;;;;;11.38;5.32;;;18.30;59.70;;;;;;6180827;23;20302;-69
2022/09/23 19:09:00;;;;;;;7.25;4.63;;;18.30;59.80;;;;;;6180235;23;20008;-69
2022/09/23 19:11:27;;;;;;;9.50;3.40;;;18.30;59.70;;;;;;6180901;23;20084;-68
2022/09/23 19:13:55;;;;;;;5.40;2.55;;;18.30;59.70;;;;;;6180021;23;19997;-71
2022/09/23 19:16:22;;;;;;;5.38;2.10;;;18.30;59.70;;;;;;6181017;23;20322;-69
2022/09/23 19:18:50;;;;;;;12.73;3.25;;;18.30;59.70;;;;;;6180524;23;20321;-69
2022/09/23 19:21:19;;;;;;;4.53;1.95;;;18.30;60.40;;;;;;6180146;23;20093;-68
2022/09/23 19:23:48;;;;;;;2.80;2.05;;;18.20;60.40;;;;;;6181560;23;20001;-69
2022/09/23 19:26:18;;;;;;;13.55;1.63;;;18.20;60.50;;;;;;6180378;23;20334;-69
2022/09/23 19:28:53;;;;;;;28.70;3.67;;;18.20;60.40;;;;;;6181378;23;20009;-68
2022/09/23 19:31:23;;;;;;;8.13;1.98;;;18.20;60.50;;;;;;6179013;23;20005;-69
2022/09/23 19:34:03;;;;;;;4.47;1.70;;;18.20;60.60;;;;;;6154967;23;20088;-69
2022/09/23 19:36:31;;;;;;;4.60;2.92;;;18.10;60.50;;;;;;6156398;23;20336;-69
2022/09/23 19:39:01;;;;;;;4.13;2.30;;;18.20;60.60;;;;;;6180049;23;19997;-71
2022/09/23 19:41:34;;;;;;;6.13;1.77;;;18.10;60.60;;;;;;6181156;23;20001;-68
2022/09/23 19:44:02;;;;;;;3.72;1.42;;;18.10;60.60;;;;;;6179743;23;20025;-70
2022/09/23 19:46:33;;;;;;;6.05;1.90;;;18.10;60.80;;;;;;6180492;23;20504;-69
2022/09/23 19:49:00;;;;;;;3.05;1.17;;;18.10;61.00;;;;;;6180192;23;20076;-72
2022/09/23 19:51:27;;;;;;;5.35;2.28;;;18.10;61.20;;;;;;6180245;23;20372;-69
2022/09/23 19:53:53;;;;;;;9.32;2.08;;;18.00;61.10;;;;;;6181013;23;20048;-71
2022/09/23 19:56:20;;;;;;;8.13;1.70;;;18.10;61.60;;;;;;6180116;23;20032;-70
2022/09/23 19:58:54;;;;;;;25.75;3.30;;;18.00;62.40;;;;;;6181348;23;19997;-69
2022/09/23 20:01:21;;;;;;;9.30;2.90;;;18.00;61.70;;;;;;6179546;23;20020;-69
2022/09/23 20:03:49;;;;;;;5.38;2.10;;;18.10;62.00;;;;;;6181022;23;20286;-72
2022/09/23 20:06:16;;;;;;;11.50;3.20;;;18.10;62.40;;;;;;6179458;23;20052;-72
2022/09/23 20:08:43;;;;;;;9.65;2.83;;;18.10;62.70;;;;;;6180123;23;20011;-70
2022/09/23 20:11:12;;;;;;;19.65;4.53;;;18.10;62.20;;;;;;6180642;23;20002;-68
2022/09/23 20:13:40;;;;;;;6.28;3.13;;;18.10;62.00;;;;;;6179304;23;20091;-71
2022/09/23 20:16:10;;;;;;;22.15;5.20;;;18.10;62.20;;;;;;6181071;23;19997;-69
2022/09/23 20:18:37;;;;;;;10.45;3.35;;;18.10;63.10;;;;;;6152712;23;20366;-71
2022/09/23 20:21:09;;;;;;;26.83;4.22;;;18.10;62.50;;;;;;6180776;23;20079;-72
2022/09/23 20:23:35;;;;;;;7.43;3.63;;;18.10;62.60;;;;;;6179775;23;20001;-68
2022/09/23 20:28:49;;;;;;;19.65;4.15;;;18.10;62.00;;;;;;6181008;23;20336;-68
2022/09/23 20:31:17;;;;;;;15.15;4.28;;;18.00;61.90;;;;;;6179267;23;20009;-69
2022/09/23 20:33:45;;;;;;;8.32;2.83;;;18.00;62.30;;;;;;6180870;23;20001;-73
2022/09/23 20:36:12;;;;;;;12.27;3.40;;;18.00;62.40;;;;;;6178794;23;20009;-70
2022/09/23 20:38:39;;;;;;;16.40;5.38;;;18.00;62.50;;;;;;6180283;23;20005;-73
2022/09/23 20:41:06;;;;;;;10.35;3.55;;;18.00;63.00;;;;;;6180627;23;20001;-69
2022/09/23 20:43:33;;;;;;;15.65;3.70;;;17.90;62.80;;;;;;6180040;23;20007;-69
2022/09/23 20:46:02;;;;;;;11.73;3.13;;;18.00;62.90;;;;;;6180221;23;20001;-69
2022/09/23 20:48:29;;;;;;;7.85;2.65;;;18.00;63.50;;;;;;6152658;23;20485;-72
2022/09/23 20:51:00;;;;;;;9.15;2.63;;;17.90;62.70;;;;;;6180053;23;20020;-72
2022/09/23 20:53:27;;;;;;;5.72;2.90;;;18.00;62.80;;;;;;6179443;23;20495;-72
2022/09/23 20:55:57;;;;;;;11.77;2.95;;;17.90;62.60;;;;;;6180874;23;20090;-69
2022/09/23 20:58:28;;;;;;;7.32;2.30;;;17.90;62.90;;;;;;6181156;23;20036;-74
2022/09/23 21:01:09;;;;;;;9.80;2.42;;;17.90;62.90;;;;;;6181920;23;20535;-70
2022/09/23 21:03:38;;;;;;;11.90;2.63;;;17.90;63.30;;;;;;6181976;23;20001;-73
2022/09/23 21:06:06;;;;;;;9.27;2.50;;;17.90;63.30;;;;;;6181603;23;19997;-70
2022/09/23 21:08:35;;;;;;;6.00;2.88;;;17.90;63.30;;;;;;6181996;23;19997;-69
2022/09/23 21:11:06;;;;;;;8.30;2.30;;;17.90;63.20;;;;;;6182627;23;20108;-70
2022/09/23 21:13:34;;;;;;;4.80;1.80;;;17.90;63.10;;;;;;6182119;23;20153;-69
2022/09/23 21:16:11;;;;;;;8.68;2.20;;;17.90;63.00;;;;;;6181682;23;20001;-69
2022/09/23 21:18:38;;;;;;;6.47;2.13;;;17.90;63.10;;;;;;6180859;23;19997;-71
2022/09/23 21:21:05;;;;;;;7.93;2.30;;;17.90;63.00;;;;;;6181950;23;20425;-72
2022/09/23 21:23:34;;;;;;;7.47;3.05;;;17.90;63.10;;;;;;6181034;23;20028;-69
2022/09/23 21:26:12;;;;;;;5.97;2.65;;;17.90;63.10;;;;;;6182144;23;20025;-68